Time;durP1;ratioP1;P1;durP2;ratioP2;P2;SDS_P1;SDS_P2;PMS_P1;PMS_P2;Temp;Humidity;BMP_temperature;BMP_pressure;BME280_temperature;BME280_humidity;BME280_pressure;Samples;Min_cycle;Max_cycle;Signal;HPM_P1;HPM_P2
2022/08/07 00:02:10;;;;;;;4.05;3.40;;;;;;;17.34;50.28;100891.09;5070509;28;20122;-61
2022/08/07 00:04:56;;;;;;;5.43;3.30;;;;;;;17.31;50.58;100886.03;5070673;28;20058;-64
2022/08/07 00:07:23;;;;;;;4.03;3.08;;;;;;;17.29;50.38;100882.59;5070260;28;20099;-61
2022/08/07 00:09:52;;;;;;;6.25;3.70;;;;;;;17.26;50.53;100888.09;5070339;28;20113;-62
2022/08/07 00:12:39;;;;;;;4.95;3.38;;;;;;;17.22;50.33;100882.16;5070809;28;20052;-61
2022/08/07 00:15:24;;;;;;;4.35;3.63;;;;;;;17.17;50.13;100887.81;5070364;28;20140;-62
2022/08/07 00:18:04;;;;;;;3.78;3.33;;;;;;;17.13;49.96;100885.44;5054278;28;20050;-61
2022/08/07 00:20:32;;;;;;;3.80;3.38;;;;;;;17.08;50.09;100882.22;5052568;28;20048;-61
2022/08/07 00:23:01;;;;;;;4.25;3.38;;;;;;;17.02;50.24;100881.66;5070303;28;20131;-60
2022/08/07 00:25:27;;;;;;;6.32;4.13;;;;;;;16.98;50.51;100884.63;5070146;28;20059;-61
2022/08/07 00:28:03;;;;;;;6.38;3.75;;;;;;;16.94;50.42;100882.16;5070293;28;20040;-60
2022/08/07 00:30:30;;;;;;;7.45;4.80;;;;;;;16.92;50.83;100886.72;5070030;28;20048;-61
2022/08/07 00:32:58;;;;;;;7.85;4.47;;;;;;;16.89;51.07;100881.59;5070357;28;20845;-62
2022/08/07 00:35:27;;;;;;;4.65;3.90;;;;;;;16.86;50.95;100871.16;5052143;28;20481;-63
2022/08/07 00:37:56;;;;;;;7.55;4.55;;;;;;;16.86;50.65;100868.50;5070123;28;20492;-61
2022/08/07 00:40:23;;;;;;;5.40;4.20;;;;;;;16.84;50.82;100875.75;5073031;28;20060;-61
2022/08/07 00:43:07;;;;;;;5.32;3.80;;;;;;;16.82;50.73;100874.13;5074244;28;20060;-62
2022/08/07 00:45:38;;;;;;;4.80;3.65;;;;;;;16.80;50.86;100876.88;5073787;28;20529;-61
2022/08/07 00:48:05;;;;;;;5.82;4.32;;;;;;;16.77;50.87;100880.59;5055951;28;20056;-64
2022/08/07 00:50:37;;;;;;;5.70;4.72;;;;;;;16.74;50.82;100869.34;5073826;28;20044;-61
2022/08/07 00:53:17;;;;;;;6.28;4.20;;;;;;;16.71;50.95;100870.34;5057854;28;20052;-60
2022/08/07 00:55:45;;;;;;;5.88;4.35;;;;;;;16.68;51.04;100874.06;5073836;28;20080;-60
2022/08/07 00:58:29;;;;;;;5.93;4.25;;;;;;;16.67;51.17;100871.50;5073413;28;20044;-62
2022/08/07 01:00:57;;;;;;;5.95;4.47;;;;;;;16.65;51.54;100862.78;5055721;28;20143;-60
2022/08/07 01:03:24;;;;;;;4.80;3.80;;;;;;;16.65;51.43;100865.44;5073426;28;20484;-64
2022/08/07 01:06:11;;;;;;;6.68;3.85;;;;;;;16.64;51.30;100864.59;5073587;28;20049;-61
2022/08/07 01:08:39;;;;;;;6.13;4.32;;;;;;;16.62;51.46;100869.16;5073513;28;20063;-63
2022/08/07 01:11:18;;;;;;;4.65;4.05;;;;;;;16.61;51.13;100861.28;5057486;28;20044;-61
2022/08/07 01:14:06;;;;;;;8.65;4.28;;;;;;;16.59;51.58;100864.03;5058709;28;20045;-61
2022/08/07 01:16:35;;;;;;;5.32;4.10;;;;;;;16.59;51.59;100865.88;5055574;28;20048;-63
2022/08/07 01:19:04;;;;;;;5.57;4.22;;;;;;;16.57;51.63;100854.47;5073336;28;20408;-63
2022/08/07 01:21:47;;;;;;;6.63;4.32;;;;;;;16.54;51.58;100859.03;5073188;28;20139;-62
2022/08/07 01:24:15;;;;;;;4.95;3.75;;;;;;;16.52;51.34;100858.28;5055480;28;20055;-61
2022/08/07 01:26:47;;;;;;;;;;;;;;;16.52;50.88;100860.09;5073423;28;20516;-61
2022/08/07 01:29:19;;;;;;;5.30;3.72;;;;;;;16.53;51.14;100854.66;5072863;28;20380;-60
2022/08/07 01:31:48;;;;;;;6.28;4.47;;;;;;;16.50;51.45;100854.88;5055339;28;20052;-61
2022/08/07 01:34:16;;;;;;;7.85;4.40;;;;;;;16.47;51.44;100854.19;5055309;28;20520;-61
2022/08/07 01:36:46;;;;;;;4.97;4.47;;;;;;;16.45;51.47;100851.63;5072953;28;20132;-62
2022/08/07 01:39:25;;;;;;;5.82;4.18;;;;;;;16.44;51.88;100849.94;5056871;28;20378;-62
2022/08/07 01:42:16;;;;;;;7.80;4.18;;;;;;;16.41;52.59;100845.66;5057844;28;20508;-61
2022/08/07 01:45:06;;;;;;;4.55;4.10;;;;;;;16.42;52.28;100846.53;5073140;28;20487;-60
2022/08/07 01:47:42;;;;;;;6.80;4.70;;;;;;;16.43;51.99;100848.22;5072663;28;20127;-62
2022/08/07 01:50:29;;;;;;;7.30;3.95;;;;;;;16.41;52.21;100843.00;5043452;28;20102;-61
2022/08/07 01:52:57;;;;;;;4.70;4.18;;;;;;;16.40;52.21;100843.97;5054863;28;20057;-60
2022/08/07 01:55:46;;;;;;;4.95;4.38;;;;;;;16.36;52.67;100841.59;5072721;28;20045;-63
2022/08/07 01:58:17;;;;;;;5.72;4.40;;;;;;;16.40;52.11;100843.97;5054758;28;20063;-61
2022/08/07 02:01:02;;;;;;;4.85;4.25;;;;;;;16.39;52.85;100842.28;5056293;28;20093;-62
2022/08/07 02:03:59;;;;;;;5.72;4.28;;;;;;;16.39;53.02;100842.28;5072215;28;20126;-60
2022/08/07 02:06:30;;;;;;;6.72;4.53;;;;;;;16.39;52.68;100836.97;5071700;28;20048;-63
2022/08/07 02:09:01;;;;;;;6.28;4.55;;;;;;;16.38;53.03;100835.22;5072305;28;20054;-61
2022/08/07 02:11:36;;;;;;;5.07;4.57;;;;;;;16.37;53.49;100832.69;5071346;28;20048;-61
2022/08/07 02:14:27;;;;;;;;;;;;;;;16.38;51.80;100837.06;5057858;28;20098;-63
2022/08/07 02:17:09;;;;;;;5.70;4.03;;;;;;;16.42;51.85;100833.25;5072208;28;19920;-64
2022/08/07 02:19:40;;;;;;;5.03;4.22;;;;;;;16.39;52.31;100833.44;5054772;28;20044;-60
2022/08/07 02:22:29;;;;;;;5.35;4.15;;;;;;;16.36;52.47;100830.97;5072014;28;20052;-62
2022/08/07 02:24:57;;;;;;;8.00;4.35;;;;;;;16.34;52.52;100824.91;5071841;28;20053;-60
2022/08/07 02:27:26;;;;;;;5.35;4.63;;;;;;;16.32;52.61;100825.00;5054203;28;20095;-61
2022/08/07 02:30:01;;;;;;;5.72;4.57;;;;;;;16.31;52.53;100822.44;5071926;28;20530;-62
2022/08/07 02:32:35;;;;;;;5.45;4.35;;;;;;;16.31;52.69;100827.75;5072062;28;20048;-62
2022/08/07 02:35:07;;;;;;;5.68;3.78;;;;;;;16.28;52.61;100819.06;5071945;28;20135;-61
2022/08/07 02:37:38;;;;;;;6.45;4.00;;;;;;;16.27;53.10;100821.81;5071813;28;20048;-61
2022/08/07 02:40:10;;;;;;;7.32;4.25;;;;;;;16.26;52.65;100818.28;5054446;28;20389;-61
2022/08/07 02:42:57;;;;;;;7.78;4.05;;;;;;;16.25;52.52;100813.94;5071502;28;20788;-61
2022/08/07 02:45:30;;;;;;;11.90;4.40;;;;;;;16.21;53.20;100811.56;5053829;28;20044;-63
2022/08/07 02:48:16;;;;;;;6.68;4.30;;;;;;;16.23;52.56;100813.16;5056650;28;20133;-61
2022/08/07 02:50:49;;;;;;;9.32;4.90;;;;;;;16.21;52.79;100819.53;5071436;28;20067;-64
2022/08/07 02:53:25;;;;;;;5.68;4.60;;;;;;;16.18;53.41;100817.91;5053888;28;20078;-62
2022/08/07 02:55:55;;;;;;;7.05;4.55;;;;;;;16.17;53.01;100816.22;5053929;28;20163;-61
2022/08/07 02:58:32;;;;;;;5.93;4.20;;;;;;;16.17;52.89;100813.56;5054578;28;20058;-63
2022/08/07 03:01:01;;;;;;;5.80;4.25;;;;;;;16.13;53.14;100815.56;5053498;28;20048;-63
2022/08/07 03:03:32;;;;;;;5.22;4.40;;;;;;;16.13;53.37;100817.38;5071052;28;20098;-62
2022/08/07 03:06:17;;;;;;;4.90;4.32;;;;;;;16.13;52.91;100817.38;5056102;28;20147;-62
2022/08/07 03:09:00;;;;;;;5.13;3.95;;;;;;;16.12;52.98;100820.97;5055589;28;20048;-63
2022/08/07 03:11:28;;;;;;;5.60;4.40;;;;;;;16.10;53.18;100812.25;5071131;28;20063;-61
2022/08/07 03:13:59;;;;;;;5.68;3.95;;;;;;;16.08;53.05;100814.16;5054156;28;20048;-61
2022/08/07 03:16:29;;;;;;;8.43;4.00;;;;;;;16.07;53.45;100817.75;5071134;28;20056;-61
2022/08/07 03:18:58;;;;;;;4.97;4.15;;;;;;;16.06;53.43;100808.06;5052909;28;20084;-62
2022/08/07 03:21:27;;;;;;;5.22;4.43;;;;;;;16.05;53.49;100817.00;5053131;28;20136;-61
2022/08/07 03:23:59;;;;;;;5.20;4.70;;;;;;;16.04;53.16;100809.97;5070571;28;20047;-62
2022/08/07 03:26:51;;;;;;;4.75;4.05;;;;;;;16.03;53.34;100819.75;5056523;28;20443;-60
2022/08/07 03:29:26;;;;;;;7.20;4.35;;;;;;;16.02;53.40;100810.06;5070561;28;20583;-59
2022/08/07 03:31:54;;;;;;;6.07;4.15;;;;;;;16.02;53.26;100808.28;5070753;28;20049;-61
2022/08/07 03:34:25;;;;;;;4.28;3.88;;;;;;;16.01;53.27;100814.53;5052892;28;20095;-62
2022/08/07 03:36:53;;;;;;;5.93;4.55;;;;;;;16.00;53.24;100809.34;5037098;28;20065;-61
2022/08/07 03:39:24;;;;;;;7.40;4.60;;;;;;;15.99;53.38;100808.47;5053112;28;20048;-61
2022/08/07 03:42:12;;;;;;;6.35;4.20;;;;;;;15.98;53.21;100809.44;5070624;28;20756;-58
2022/08/07 03:44:39;;;;;;;4.85;4.35;;;;;;;15.97;53.34;100815.69;5070536;28;20048;-61
2022/08/07 03:47:07;;;;;;;6.93;4.95;;;;;;;15.95;53.35;100812.25;5070450;28;20404;-61
2022/08/07 03:49:42;;;;;;;5.10;4.43;;;;;;;15.94;53.55;100815.88;5053493;28;20063;-62
2022/08/07 03:52:21;;;;;;;7.10;4.22;;;;;;;15.92;53.82;100812.41;5054247;28;20524;-62
2022/08/07 03:55:02;;;;;;;5.45;4.38;;;;;;;15.89;54.55;100817.94;5053326;28;20048;-61
2022/08/07 03:57:34;;;;;;;7.40;4.60;;;;;;;15.92;53.99;100823.03;5053295;28;20041;-61
2022/08/07 04:00:21;;;;;;;7.32;4.22;;;;;;;15.94;53.84;100821.19;5070471;28;20052;-63
2022/08/07 04:02:57;;;;;;;7.53;4.55;;;;;;;15.94;54.02;100818.53;5070464;28;20048;-62
2022/08/07 04:05:24;;;;;;;4.70;4.30;;;;;;;15.95;53.93;100822.03;5070392;28;20066;-62
2022/08/07 04:08:10;;;;;;;7.05;4.07;;;;;;;15.94;54.16;100821.19;5070275;28;20048;-60
2022/08/07 04:10:37;;;;;;;4.82;4.18;;;;;;;15.96;53.84;100821.09;5052762;28;20052;-61
2022/08/07 04:13:06;;;;;;;6.88;4.25;;;;;;;15.97;53.99;100823.66;5052549;28;20389;-63
2022/08/07 04:15:42;;;;;;;7.05;4.32;;;;;;;15.97;54.04;100830.75;5057439;28;20052;-61
2022/08/07 04:18:13;;;;;;;5.20;4.00;;;;;;;15.96;54.17;100829.06;5056583;28;20492;-60
2022/08/07 04:21:00;;;;;;;7.55;4.47;;;;;;;15.97;54.00;100823.66;5074102;28;20106;-61
2022/08/07 04:23:28;;;;;;;6.38;4.47;;;;;;;15.98;54.28;100821.84;5074368;28;20440;-61
2022/08/07 04:26:15;;;;;;;7.38;4.50;;;;;;;15.98;54.31;100825.34;5074582;28;20053;-61
2022/08/07 04:28:42;;;;;;;6.55;4.60;;;;;;;15.99;54.59;100829.72;5073705;28;20126;-61
2022/08/07 04:31:10;;;;;;;5.60;4.60;;;;;;;15.99;54.39;100828.84;5074190;28;20063;-59
2022/08/07 04:33:46;;;;;;;5.00;4.43;;;;;;;16.01;54.29;100834.94;5074173;28;20562;-60
2022/08/07 04:36:20;;;;;;;6.15;4.30;;;;;;;16.03;54.41;100827.72;5074150;28;20083;-64
2022/08/07 04:38:51;;;;;;;4.53;4.13;;;;;;;16.02;54.45;100832.19;5073819;28;20385;-61
2022/08/07 04:41:18;;;;;;;4.25;3.65;;;;;;;16.04;54.31;100831.22;5074038;28;20481;-59
2022/08/07 04:43:45;;;;;;;5.03;4.32;;;;;;;16.05;54.87;100828.47;5074086;28;20094;-62
2022/08/07 04:46:46;;;;;;;3.63;3.33;;;;;;;16.03;55.25;100827.72;5073986;28;20049;-61
2022/08/07 04:49:46;;;;;;;6.63;3.92;;;;;;;16.06;55.55;100824.88;5073566;28;20087;-61
2022/08/07 04:52:56;;;;;;;8.25;4.05;;;;;;;16.11;55.45;100824.59;5058280;28;20052;-62
2022/08/07 04:55:29;;;;;;;4.75;3.80;;;;;;;16.13;55.54;100830.63;5073644;28;20052;-61
2022/08/07 04:58:22;;;;;;;5.10;4.05;;;;;;;16.17;54.97;100826.84;5073723;28;20052;-60
2022/08/07 05:01:15;;;;;;;5.57;4.25;;;;;;;16.18;55.87;100827.72;5073949;28;20502;-61
2022/08/07 05:03:56;;;;;;;4.32;3.63;;;;;;;16.20;55.93;100828.44;5073520;28;20105;-61
2022/08/07 05:06:57;;;;;;;5.30;3.75;;;;;;;16.21;55.90;100824.84;5073845;28;20474;-62
2022/08/07 05:09:42;;;;;;;5.45;3.92;;;;;;;16.24;56.14;100832.63;5073373;28;20044;-60
2022/08/07 05:12:17;;;;;;;5.07;3.95;;;;;;;16.30;55.78;100831.38;5056062;28;20086;-61
2022/08/07 05:14:59;;;;;;;7.72;4.10;;;;;;;16.34;55.86;100840.84;5073406;28;20052;-63
2022/08/07 05:17:32;;;;;;;7.80;4.00;;;;;;;16.37;55.51;100844.16;5073476;28;20048;-61
2022/08/07 05:20:25;;;;;;;4.88;3.92;;;;;;;16.41;55.90;100842.19;5057993;28;20056;-60
2022/08/07 05:22:55;;;;;;;;;;;;;;;16.45;55.19;100837.50;5073867;28;20052;-61
2022/08/07 05:25:23;;;;;;;4.88;3.53;;;;;;;16.53;55.21;100841.38;5073115;28;19924;-61
2022/08/07 05:28:04;;;;;;;4.28;3.88;;;;;;;16.56;55.45;100845.63;5073326;28;20546;-62
2022/08/07 05:30:50;;;;;;;7.88;4.10;;;;;;;16.60;55.78;100848.97;5057767;28;20044;-62
2022/08/07 05:33:19;;;;;;;15.55;5.32;;;;;;;16.63;55.67;100854.91;5073126;28;20492;-63
2022/08/07 05:35:49;;;;;;;7.22;4.35;;;;;;;16.68;55.95;100859.94;5055408;28;20452;-62
2022/08/07 05:38:18;;;;;;;5.70;4.18;;;;;;;16.71;55.93;100857.06;5072905;28;20106;-62
2022/08/07 05:41:07;;;;;;;5.90;3.65;;;;;;;16.77;55.94;100858.47;5072639;28;20393;-62
2022/08/07 05:43:47;;;;;;;6.03;4.28;;;;;;;16.84;56.58;100869.56;5055991;28;20048;-63
2022/08/07 05:46:36;;;;;;;5.47;3.75;;;;;;;16.91;56.04;100857.56;5057742;28;20102;-63
2022/08/07 05:49:06;;;;;;;7.97;3.75;;;;;;;16.96;56.22;100855.44;5054390;28;20053;-61
2022/08/07 05:51:38;;;;;;;4.13;3.60;;;;;;;17.03;56.16;100854.09;5055289;28;20582;-60
2022/08/07 05:54:06;;;;;;;4.47;3.55;;;;;;;17.10;56.22;100859.03;5072847;28;20398;-61
2022/08/07 05:56:53;;;;;;;4.47;3.83;;;;;;;17.16;56.13;100851.47;5072462;28;20053;-62
2022/08/07 05:59:23;;;;;;;7.68;3.80;;;;;;;17.24;56.31;100866.09;5072253;28;20060;-60
2022/08/07 06:01:50;;;;;;;4.80;3.38;;;;;;;17.29;56.35;100854.19;5071711;28;20052;-61
2022/08/07 06:04:20;;;;;;;5.05;3.63;;;;;;;17.35;56.49;100860.03;5071474;28;20048;-62
2022/08/07 06:06:55;;;;;;;5.88;3.95;;;;;;;17.44;56.28;100864.72;5055171;28;20055;-61
2022/08/07 06:09:31;;;;;;;5.38;3.88;;;;;;;17.50;56.40;100867.00;5071492;28;20048;-60
2022/08/07 06:12:10;;;;;;;4.00;3.58;;;;;;;17.58;55.96;100869.94;5071519;28;20080;-63
2022/08/07 06:14:42;;;;;;;3.75;3.33;;;;;;;17.64;55.54;100862.53;5071542;28;20087;-63
2022/08/07 06:17:16;;;;;;;5.22;3.70;;;;;;;17.71;55.95;100869.97;5055434;28;20529;-61
2022/08/07 06:19:43;;;;;;;4.95;3.28;;;;;;;17.77;55.49;100871.34;5054165;28;20048;-62
2022/08/07 06:22:32;;;;;;;5.15;3.20;;;;;;;17.85;55.24;100868.16;5072259;28;20056;-62
2022/08/07 06:25:06;;;;;;;3.72;3.00;;;;;;;17.92;55.38;100865.91;5055209;28;20127;-61
2022/08/07 06:27:36;;;;;;;5.07;3.03;;;;;;;18.00;55.20;100876.00;5071899;28;20063;-60
2022/08/07 06:30:22;;;;;;;3.60;2.92;;;;;;;18.06;54.90;100872.94;5056007;28;20048;-61
2022/08/07 06:33:02;;;;;;;3.95;2.70;;;;;;;18.14;55.08;100870.59;5071021;28;20102;-63
2022/08/07 06:35:29;;;;;;;3.13;2.78;;;;;;;18.20;54.70;100870.16;5036666;28;20513;-63
2022/08/07 06:38:13;;;;;;;5.93;2.70;;;;;;;18.28;54.30;100882.91;5054920;28;20500;-62
2022/08/07 06:40:49;;;;;;;3.13;2.50;;;;;;;18.34;53.95;100874.50;5071000;28;20079;-60
2022/08/07 06:43:21;;;;;;;3.58;2.38;;;;;;;18.42;53.96;100870.41;5053097;28;20040;-64
2022/08/07 06:45:49;;;;;;;3.20;2.30;;;;;;;18.51;53.50;100872.44;5071740;28;20076;-63
2022/08/07 06:48:17;;;;;;;4.55;2.53;;;;;;;18.57;53.29;100865.78;5053980;28;20056;-60
2022/08/07 06:50:52;;;;;;;3.72;2.20;;;;;;;18.65;53.34;100865.22;5071619;28;20102;-61
2022/08/07 06:53:21;;;;;;;4.03;2.20;;;;;;;18.71;53.22;100860.28;5052848;28;20087;-60
2022/08/07 06:56:10;;;;;;;3.00;2.60;;;;;;;18.80;52.76;100861.41;5069103;28;20083;-63
2022/08/07 06:58:42;;;;;;;4.22;2.17;;;;;;;18.88;52.51;100863.53;5069794;28;20052;-65
2022/08/07 07:01:31;;;;;;;3.70;2.45;;;;;;;18.95;52.89;100862.06;5070317;28;20087;-61
2022/08/07 07:04:09;;;;;;;3.20;1.98;;;;;;;19.04;52.36;100862.34;5054378;28;20505;-62
2022/08/07 07:06:57;;;;;;;2.55;2.08;;;;;;;19.11;52.49;100852.97;5056185;28;20493;-62
2022/08/07 07:09:28;;;;;;;2.95;2.08;;;;;;;19.17;51.77;100855.16;5054095;28;20060;-61
2022/08/07 07:12:06;;;;;;;2.65;2.20;;;;;;;19.22;51.25;100857.50;5053615;28;20045;-64
2022/08/07 07:14:59;;;;;;;3.03;2.08;;;;;;;19.31;51.13;100851.44;5071095;28;20044;-61
2022/08/07 07:17:42;;;;;;;1.90;1.80;;;;;;;19.35;50.54;100852.03;5053721;28;20511;-61
2022/08/07 07:20:18;;;;;;;2.28;1.77;;;;;;;19.43;50.24;100857.66;5070894;28;20053;-61
2022/08/07 07:22:47;;;;;;;3.40;1.88;;;;;;;19.49;50.02;100854.53;5053343;28;20105;-61
2022/08/07 07:25:37;;;;;;;2.97;1.50;;;;;;;19.54;49.14;100859.50;5056232;28;20048;-61
2022/08/07 07:28:30;;;;;;;2.83;1.95;;;;;;;19.59;49.24;100845.78;5070860;28;20052;-61
2022/08/07 07:31:30;;;;;;;1.80;1.65;;;;;;;19.66;49.53;100855.00;5056424;28;20111;-64
2022/08/07 07:34:18;;;;;;;1.85;1.25;;;;;;;19.70;49.08;100855.63;5071036;28;20052;-63
2022/08/07 07:36:48;;;;;;;2.53;1.63;;;;;;;19.76;48.66;100853.31;5071061;28;20040;-62
2022/08/07 07:39:22;;;;;;;3.05;1.27;;;;;;;19.80;48.52;100851.25;5070552;28;20409;-61
2022/08/07 07:41:52;;;;;;;2.53;1.75;;;;;;;19.87;48.35;100851.63;5053441;28;20080;-63
2022/08/07 07:44:44;;;;;;;1.92;1.50;;;;;;;19.91;48.05;100853.94;5070503;28;20078;-61
2022/08/07 07:47:16;;;;;;;2.78;1.17;;;;;;;19.99;48.52;100847.16;5070774;28;20512;-64
2022/08/07 07:49:51;;;;;;;2.30;1.52;;;;;;;20.06;48.42;100845.69;5052787;28;20056;-61
2022/08/07 07:52:39;;;;;;;1.08;0.70;;;;;;;20.14;47.76;100835.25;5070519;28;20102;-61
2022/08/07 07:55:08;;;;;;;2.17;1.02;;;;;;;20.21;47.22;100840.06;5070654;28;20056;-63
2022/08/07 07:57:39;;;;;;;1.65;0.93;;;;;;;20.27;46.55;100843.13;5053190;28;20155;-63
2022/08/07 08:00:18;;;;;;;0.90;0.73;;;;;;;20.36;46.71;100837.97;5070439;28;20055;-62
2022/08/07 08:03:00;;;;;;;1.52;0.65;;;;;;;20.43;46.38;100839.19;5070611;28;20060;-62
2022/08/07 08:05:37;;;;;;;1.67;1.00;;;;;;;20.50;46.26;100834.19;5053568;28;20055;-65
2022/08/07 08:08:25;;;;;;;2.05;0.98;;;;;;;20.60;46.46;100826.25;5054879;28;20503;-62
2022/08/07 08:11:06;;;;;;;1.20;0.98;;;;;;;20.68;46.25;100829.16;5054034;28;20062;-64
2022/08/07 08:13:34;;;;;;;1.85;0.90;;;;;;;;;;5053404;28;20070;-62
2022/08/07 08:16:25;;;;;;;1.25;0.90;;;;;;;20.82;45.81;100836.03;5070483;28;20484;-62
2022/08/07 08:18:57;;;;;;;1.10;1.00;;;;;;;20.89;45.37;100831.88;5052950;28;20044;-64
2022/08/07 08:27:35;;;;;;;1.15;0.88;;;;;;;21.12;44.30;100834.44;5070212;28;20048;-62
2022/08/07 08:30:06;;;;;;;2.33;1.00;;;;;;;21.21;44.88;100828.34;5052152;28;20057;-61
2022/08/07 08:32:48;;;;;;;1.17;1.08;;;;;;;21.28;45.18;100823.28;5070104;28;20059;-64
2022/08/07 08:35:25;;;;;;;2.13;1.20;;;;;;;21.36;44.94;100827.97;5052805;28;20088;-61
2022/08/07 08:38:01;;;;;;;2.42;0.98;;;;;;;21.47;43.88;100821.69;5052596;28;20496;-62
2022/08/07 08:40:34;;;;;;;6.43;1.50;;;;;;;21.57;44.81;100819.91;5070001;28;20063;-65
2022/08/07 08:43:22;;;;;;;2.05;1.40;;;;;;;21.64;44.62;100824.75;5070334;28;20330;-61
2022/08/07 08:46:27;;;;;;;1.58;1.02;;;;;;;21.80;45.33;100826.97;5070207;28;20106;-62
2022/08/07 08:49:09;;;;;;;1.50;1.20;;;;;;;21.91;44.22;100821.50;5069899;28;20059;-61
2022/08/07 08:51:51;;;;;;;1.52;1.10;;;;;;;22.02;44.91;100823.25;5070007;28;20123;-60
2022/08/07 08:54:43;;;;;;;2.47;1.40;;;;;;;22.19;44.39;100829.75;5055024;28;20562;-61
2022/08/07 08:57:39;;;;;;;2.00;1.60;;;;;;;22.28;44.60;100821.88;5069862;28;20511;-62
2022/08/07 09:00:08;;;;;;;2.05;1.73;;;;;;;22.43;44.84;100828.53;5053098;28;20044;-62
2022/08/07 09:02:37;;;;;;;2.97;1.88;;;;;;;22.54;44.79;100824.03;5055952;28;20048;-62
2022/08/07 09:05:18;;;;;;;2.30;1.88;;;;;;;22.65;45.17;100818.53;5073659;28;20087;-63
2022/08/07 09:08:19;;;;;;;2.00;1.55;;;;;;;22.74;45.51;100820.41;5056843;28;20500;-62
2022/08/07 09:11:18;;;;;;;4.28;1.92;;;;;;;22.92;45.39;100825.06;5073455;28;20519;-62
2022/08/07 09:14:14;;;;;;;3.05;1.50;;;;;;;23.13;46.04;100827.56;5073390;28;20571;-61
2022/08/07 09:17:01;;;;;;;2.60;1.65;;;;;;;23.28;45.13;100811.84;5073639;28;20059;-64
2022/08/07 09:19:40;;;;;;;6.25;1.70;;;;;;;23.48;44.54;100811.84;5055479;28;20052;-61
2022/08/07 09:22:44;;;;;;;2.05;1.70;;;;;;;23.67;44.39;100807.38;5057255;28;20135;-62
2022/08/07 09:25:57;;;;;;;2.83;1.50;;;;;;;23.87;43.69;100815.34;5073188;28;20075;-61
2022/08/07 09:28:33;;;;;;;5.97;1.70;;;;;;;24.03;44.25;100812.03;5072781;28;20044;-62
2022/08/07 09:31:39;;;;;;;1.92;1.52;;;;;;;24.18;43.36;100812.41;5058207;28;20048;-62
2022/08/07 09:34:21;;;;;;;1.75;1.55;;;;;;;24.32;43.04;100811.88;5056592;28;20040;-61
2022/08/07 09:36:51;;;;;;;3.83;1.75;;;;;;;24.39;42.35;100805.84;5055777;28;20412;-61
2022/08/07 09:39:20;;;;;;;4.72;1.75;;;;;;;24.40;41.47;100803.03;5072731;28;20053;-62
2022/08/07 09:42:13;;;;;;;1.60;1.25;;;;;;;24.39;41.89;100797.78;5073210;28;20563;-63
2022/08/07 09:45:03;;;;;;;2.45;1.58;;;;;;;24.37;42.15;100803.31;5072984;28;20053;-61
2022/08/07 09:48:04;;;;;;;2.30;1.60;;;;;;;24.40;42.26;100804.88;5072787;28;20084;-61
2022/08/07 09:51:07;;;;;;;1.42;1.23;;;;;;;24.42;41.50;100801.03;5072905;28;20080;-63
2022/08/07 09:53:59;;;;;;;1.70;1.30;;;;;;;24.47;41.78;100797.88;5058201;28;20109;-63
2022/08/07 09:57:02;;;;;;;1.45;1.20;;;;;;;24.45;42.06;100798.03;5055520;28;20123;-63
2022/08/07 10:00:02;;;;;;;13.50;1.85;;;;;;;24.49;41.82;100801.28;5072378;28;20541;-61
2022/08/07 10:02:35;;;;;;;2.25;1.40;;;;;;;24.56;41.23;100788.88;5055115;28;20044;-61
2022/08/07 10:05:25;;;;;;;3.92;1.50;;;;;;;24.52;40.50;100797.41;5072674;28;20060;-64
2022/08/07 10:08:46;;;;;;;2.53;1.40;;;;;;;24.50;40.91;100786.81;5072349;28;20455;-61
2022/08/07 10:11:34;;;;;;;1.77;1.25;;;;;;;24.48;40.53;100788.78;5072000;28;20066;-63
2022/08/07 10:14:51;;;;;;;3.45;1.52;;;;;;;24.42;40.74;100775.97;5072261;28;20102;-62
2022/08/07 10:17:47;;;;;;;3.25;1.77;;;;;;;24.41;40.49;100774.28;5054993;28;20056;-62
2022/08/07 10:20:44;;;;;;;2.35;1.35;;;;;;;24.42;40.15;100776.81;5072036;28;20084;-61
2022/08/07 10:23:49;;;;;;;1.83;1.35;;;;;;;24.40;40.31;100769.91;5072421;28;20049;-61
2022/08/07 10:27:03;;;;;;;2.22;1.77;;;;;;;24.35;39.41;100773.03;5072231;28;20102;-61
2022/08/07 10:29:53;;;;;;;2.10;1.50;;;;;;;24.30;39.61;100769.97;5054773;28;20056;-61
2022/08/07 10:32:32;;;;;;;3.58;1.58;;;;;;;24.26;39.46;100768.59;5072174;28;20047;-61
2022/08/07 10:35:33;;;;;;;2.85;1.42;;;;;;;24.22;39.24;100769.88;5072251;28;20052;-62
2022/08/07 10:38:51;;;;;;;1.85;1.33;;;;;;;24.07;40.83;100763.16;5056975;28;20041;-61
2022/08/07 10:41:53;;;;;;;1.67;1.33;;;;;;;24.06;41.46;100763.28;5054062;28;20501;-61
2022/08/07 10:44:51;;;;;;;1.90;1.10;;;;;;;24.15;41.89;100761.59;5037106;28;20054;-64
2022/08/07 10:47:38;;;;;;;1.80;1.35;;;;;;;24.28;42.15;100753.13;5071885;28;20052;-61
2022/08/07 10:50:23;;;;;;;2.80;1.13;;;;;;;24.50;41.09;100754.50;5071276;28;20045;-61
2022/08/07 10:53:02;;;;;;;2.65;1.40;;;;;;;24.72;41.25;100755.03;5054207;28;20052;-63
2022/08/07 10:55:34;;;;;;;2.40;1.40;;;;;;;25.01;40.40;100745.00;5054665;28;20048;-61
2022/08/07 10:58:33;;;;;;;3.08;1.20;;;;;;;25.35;41.05;100749.56;5071286;28;20077;-68
2022/08/07 11:01:18;;;;;;;2.05;1.52;;;;;;;25.86;41.49;100738.84;5071589;28;20052;-62
2022/08/07 11:03:57;;;;;;;1.60;1.17;;;;;;;26.44;39.58;100726.47;5071374;28;20078;-65
2022/08/07 11:07:00;;;;;;;1.83;1.17;;;;;;;27.21;39.01;100727.06;5056886;28;20049;-64
2022/08/07 11:09:32;;;;;;;1.10;1.00;;;;;;;27.99;37.30;100723.69;5053479;28;20061;-62
2022/08/07 11:12:27;;;;;;;1.60;1.20;;;;;;;28.84;37.00;100721.81;5071096;28;20052;-62
2022/08/07 11:15:03;;;;;;;3.78;1.08;;;;;;;29.64;37.13;100715.00;5053891;28;20052;-62
2022/08/07 11:17:55;;;;;;;1.17;1.08;;;;;;;30.35;35.52;100721.59;5055162;28;20412;-62
2022/08/07 11:21:01;;;;;;;1.65;0.90;;;;;;;30.81;33.85;100712.16;5070889;28;20071;-62
2022/08/07 11:23:37;;;;;;;0.95;0.90;;;;;;;31.06;32.53;100711.66;5071245;28;20052;-62
2022/08/07 11:26:09;;;;;;;0.80;0.80;;;;;;;31.16;32.07;100713.19;5070986;28;20051;-63
2022/08/07 11:28:46;;;;;;;1.10;1.10;;;;;;;31.01;31.36;100705.16;5070766;28;20052;-62
2022/08/07 11:31:33;;;;;;;82.30;5.80;;;;;;;30.73;32.55;100703.31;5054214;28;20044;-62
2022/08/07 11:34:13;;;;;;;2.15;1.23;;;;;;;30.42;31.60;100702.63;5071169;28;20041;-61
2022/08/07 11:36:53;;;;;;;1.42;1.10;;;;;;;30.06;31.45;100698.97;5071145;28;20048;-64
2022/08/07 11:39:31;;;;;;;1.75;1.38;;;;;;;29.66;31.41;100699.38;5070633;28;20079;-64
2022/08/07 11:42:20;;;;;;;2.08;1.40;;;;;;;29.23;31.83;100695.47;5055854;28;20055;-62
2022/08/07 11:45:14;;;;;;;2.65;1.30;;;;;;;28.91;33.39;100692.13;5070704;28;20056;-63
2022/08/07 11:47:54;;;;;;;1.85;1.20;;;;;;;28.90;33.45;100690.47;5070698;28;20056;-66
2022/08/07 11:50:57;;;;;;;35.58;3.33;;;;;;;28.94;34.54;100690.91;5070625;28;20087;-62
2022/08/07 11:53:51;;;;;;;1.25;1.00;;;;;;;29.18;34.21;100692.50;5070874;28;20136;-62
2022/08/07 11:56:43;;;;;;;1.30;1.15;;;;;;;29.49;32.77;100677.84;5070543;28;20060;-62
2022/08/07 11:59:21;;;;;;;;;;;;;;;29.74;35.22;100685.69;5071038;28;20083;-62
2022/08/07 12:02:26;;;;;;;1.55;1.05;;;;;;;30.10;33.01;100677.69;5070494;28;19920;-62
2022/08/07 12:05:10;;;;;;;2.17;1.13;;;;;;;30.32;31.83;100672.25;5070699;28;20710;-63
2022/08/07 12:08:06;;;;;;;1.08;0.90;;;;;;;30.56;33.38;100671.81;5053329;28;20484;-63
2022/08/07 12:10:57;;;;;;;1.17;1.08;;;;;;;30.94;33.90;100675.22;5070171;28;20052;-64
2022/08/07 12:13:47;;;;;;;1.23;1.08;;;;;;;31.36;31.87;100675.25;5055578;28;20044;-62
2022/08/07 12:16:20;;;;;;;2.05;1.00;;;;;;;31.70;30.72;100675.34;5070295;28;20061;-62
2022/08/07 12:19:33;;;;;;;3.00;1.20;;;;;;;32.02;30.87;100670.19;5053778;28;20056;-63
2022/08/07 12:22:38;;;;;;;0.82;0.68;;;;;;;32.53;31.56;100677.94;5070238;28;20496;-62
2022/08/07 12:25:51;;;;;;;1.90;0.90;;;;;;;33.05;29.93;100671.78;5070219;28;20045;-63
2022/08/07 12:28:46;;;;;;;2.85;1.00;;;;;;;33.68;29.50;100659.34;5055642;28;20048;-63
2022/08/07 12:31:46;;;;;;;1.48;1.10;;;;;;;34.21;27.64;100667.38;5070460;28;20122;-62
2022/08/07 12:34:30;;;;;;;1.67;0.90;;;;;;;34.80;27.88;100667.06;5070212;28;20044;-61
2022/08/07 12:36:59;;;;;;;0.80;0.80;;;;;;;35.22;27.11;100659.00;5056471;28;20493;-62